createdAt,value
2022-08-17T00:00:03.690Z,68509.66
2022-08-17T00:03:15.149Z,68488.84
2022-08-17T00:05:55.298Z,68430.22
2022-08-17T00:08:26.646Z,68402.00
2022-08-17T00:10:55.476Z,68429.41
2022-08-17T00:13:31.024Z,68384.13
2022-08-17T00:16:02.371Z,68330.03
2022-08-17T00:19:01.506Z,68264.59
2022-08-17T00:21:23.629Z,68230.38
2022-08-17T00:23:52.130Z,68159.59
2022-08-17T00:26:43.733Z,68085.81
2022-08-17T00:29:09.844Z,68058.09
2022-08-17T00:31:47.339Z,67957.41
2022-08-17T00:34:14.697Z,67908.88
2022-08-17T00:36:42.104Z,67884.66
2022-08-17T00:39:10.250Z,67811.38
2022-08-17T00:41:42.195Z,67833.78
2022-08-17T00:44:12.006Z,67793.88
2022-08-17T00:46:43.117Z,67654.81
2022-08-17T00:49:12.749Z,67690.25
2022-08-17T00:51:46.495Z,67591.75
2022-08-17T00:54:24.905Z,67498.91
2022-08-17T00:57:05.655Z,67450.88
2022-08-17T00:59:39.752Z,67352.50
2022-08-17T01:02:09.623Z,67311.06
2022-08-17T01:04:37.539Z,67227.66
2022-08-17T01:07:06.693Z,67148.88
2022-08-17T01:09:34.568Z,67061.19
2022-08-17T01:12:02.024Z,66981.13
2022-08-17T01:14:29.526Z,66880.66
2022-08-17T01:16:57.228Z,66864.53
2022-08-17T01:19:28.793Z,66792.94
2022-08-17T01:22:06.463Z,66738.81
2022-08-17T01:24:35.952Z,66582.28
2022-08-17T01:27:04.045Z,66492.00
2022-08-17T01:29:40.947Z,66444.63
2022-08-17T01:32:09.242Z,66354.31
2022-08-17T01:34:42.775Z,66227.44
2022-08-17T01:37:14.110Z,66120.50
2022-08-17T01:39:57.586Z,66067.88
2022-08-17T01:42:40.348Z,65895.34
2022-08-17T01:45:16.789Z,65829.72
2022-08-17T01:47:44.769Z,65637.41
2022-08-17T01:50:23.775Z,65488.66
2022-08-17T01:52:55.945Z,65347.97
2022-08-17T01:55:33.243Z,65217.00
2022-08-17T01:58:01.306Z,65009.91
2022-08-17T02:00:47.123Z,64894.00
2022-08-17T02:03:21.801Z,64743.81
2022-08-17T02:05:50.585Z,64615.09
2022-08-17T02:08:20.463Z,64460.66
2022-08-17T02:11:11.500Z,64288.03
2022-08-17T02:13:39.558Z,64132.53
2022-08-17T02:16:06.781Z,64072.00
2022-08-17T02:18:33.857Z,63995.38
2022-08-17T02:21:01.533Z,63919.81
2022-08-17T02:23:33.461Z,63845.19
2022-08-17T02:26:01.903Z,63744.78
2022-08-17T02:28:29.701Z,63712.72
2022-08-17T02:31:03.384Z,63724.09
2022-08-17T02:33:41.680Z,63609.00
2022-08-17T02:36:12.493Z,63478.94
2022-08-17T02:38:41.158Z,63527.22
2022-08-17T02:41:09.198Z,63403.44
2022-08-17T02:43:36.757Z,63323.13
2022-08-17T02:46:03.793Z,63210.81
2022-08-17T02:48:32.041Z,63081.84
2022-08-17T02:51:00.812Z,62897.72
2022-08-17T02:53:35.972Z,62495.97
2022-08-17T02:56:04.122Z,62589.06
2022-08-17T02:58:34.613Z,62448.13
2022-08-17T03:01:07.146Z,62299.84
2022-08-17T03:03:35.694Z,62221.97
2022-08-17T03:06:03.727Z,62126.47
2022-08-17T03:08:31.735Z,62026.50
2022-08-17T03:10:58.743Z,61958.38
2022-08-17T03:13:27.214Z,61841.19
2022-08-17T03:15:54.301Z,61720.72
2022-08-17T03:18:25.742Z,61743.91
2022-08-17T03:21:00.837Z,61632.03
2022-08-17T03:23:30.401Z,61580.00
2022-08-17T03:26:00.103Z,61548.41
2022-08-17T03:28:28.238Z,61451.09
2022-08-17T03:30:55.657Z,61356.97
2022-08-17T03:33:23.302Z,61296.59
2022-08-17T03:35:50.785Z,61141.03
2022-08-17T03:38:20.067Z,61187.03
2022-08-17T03:40:56.260Z,61237.97
2022-08-17T03:43:32.873Z,61209.72
2022-08-17T03:46:34.398Z,61194.53
2022-08-17T03:49:27.449Z,61313.50
2022-08-17T03:52:15.739Z,61273.78
2022-08-17T03:55:03.303Z,61254.41
2022-08-17T03:57:31.621Z,61237.22
2022-08-17T03:59:59.738Z,61257.06
2022-08-17T04:02:33.831Z,61252.75
2022-08-17T04:05:01.600Z,61200.03
2022-08-17T04:07:31.466Z,61270.72
2022-08-17T04:09:59.658Z,61275.84
2022-08-17T04:12:31.471Z,61185.41
2022-08-17T04:14:59.145Z,61206.22
2022-08-17T04:17:29.241Z,61163.50
2022-08-17T04:19:56.908Z,61128.47
2022-08-17T04:22:33.070Z,61051.25
2022-08-17T04:25:17.768Z,61186.16
2022-08-17T04:27:44.832Z,61183.09
2022-08-17T04:30:12.941Z,61209.34
2022-08-17T04:33:04.058Z,61191.28
2022-08-17T04:35:41.171Z,61097.25
2022-08-17T04:38:14.279Z,61128.31
2022-08-17T04:41:00.454Z,61088.06
2022-08-17T04:43:30.947Z,61090.88
2022-08-17T04:46:05.964Z,61020.03
2022-08-17T04:48:38.592Z,61023.56
2022-08-17T04:51:15.301Z,60939.69
2022-08-17T04:53:53.988Z,60851.97
2022-08-17T04:56:23.398Z,60886.97
2022-08-17T04:58:54.020Z,60960.66
2022-08-17T05:01:24.712Z,60934.75
2022-08-17T05:03:54.684Z,60909.38
2022-08-17T05:06:22.615Z,60988.66
2022-08-17T05:08:49.857Z,60958.19
2022-08-17T05:11:17.307Z,61213.59
2022-08-17T05:13:44.926Z,61209.03
2022-08-17T05:16:12.273Z,61236.28
2022-08-17T05:18:39.528Z,61187.38
2022-08-17T05:21:07.264Z,61216.00
2022-08-17T05:23:41.930Z,61261.88
2022-08-17T05:26:26.495Z,61249.34
2022-08-17T05:29:00.545Z,61241.56
2022-08-17T05:31:30.775Z,61202.66
2022-08-17T05:33:58.829Z,61349.13
2022-08-17T05:36:42.154Z,61425.31
2022-08-17T05:39:16.507Z,61557.38
2022-08-17T05:41:47.646Z,61477.84
2022-08-17T05:44:16.358Z,61613.44
2022-08-17T05:46:50.178Z,61604.78
2022-08-17T05:49:27.185Z,61538.38
2022-08-17T05:52:12.792Z,61511.47
2022-08-17T05:55:13.901Z,61464.91
2022-08-17T05:57:52.928Z,61394.06
2022-08-17T06:00:43.247Z,61446.44
2022-08-17T06:03:29.027Z,61668.63
2022-08-17T06:06:34.711Z,61678.19
2022-08-17T06:09:39.622Z,61621.25
2022-08-17T06:12:45.783Z,61571.94
2022-08-17T06:15:32.617Z,61700.16
2022-08-17T06:18:06.324Z,61647.91
2022-08-17T06:20:47.372Z,61630.66
2022-08-17T06:23:30.492Z,61622.47
2022-08-17T06:26:08.628Z,61594.72
2022-08-17T06:28:58.631Z,61418.72
2022-08-17T06:31:40.824Z,61361.53
2022-08-17T06:34:12.590Z,61114.59
2022-08-17T06:37:03.614Z,61201.13
2022-08-17T06:39:49.871Z,61315.13
2022-08-17T06:43:06.535Z,61585.28
2022-08-17T06:45:50.257Z,61703.06
2022-08-17T06:48:33.174Z,61761.44
2022-08-17T06:51:52.468Z,61772.91
2022-08-17T06:54:59.840Z,61961.69
2022-08-17T06:57:33.496Z,61935.56
2022-08-17T07:00:26.679Z,62053.78
2022-08-17T07:02:59.613Z,61960.16
2022-08-17T07:05:42.942Z,61982.81
2022-08-17T07:08:45.366Z,62025.59
2022-08-17T07:11:19.260Z,62175.41
2022-08-17T07:14:20.015Z,62025.75
2022-08-17T07:16:53.757Z,62080.84
2022-08-17T07:19:31.730Z,61923.16
2022-08-17T07:22:20.563Z,61963.94
2022-08-17T07:25:02.415Z,62120.34
2022-08-17T07:27:45.770Z,62241.69
2022-08-17T07:30:25.181Z,62328.91
2022-08-17T07:32:59.474Z,62289.94
2022-08-17T07:35:37.534Z,62265.47
2022-08-17T07:38:25.891Z,62549.69
2022-08-17T07:41:03.369Z,62534.56
2022-08-17T07:43:39.910Z,62585.44
2022-08-17T07:46:42.146Z,62481.72
2022-08-17T07:49:09.175Z,62462.13
2022-08-17T07:51:46.657Z,62512.53
2022-08-17T07:54:22.392Z,62457.50
2022-08-17T07:56:56.467Z,62364.78
2022-08-17T07:59:33.369Z,62387.78
2022-08-17T08:02:06.215Z,62432.53
2022-08-17T08:04:59.735Z,62752.81
2022-08-17T08:07:37.388Z,62956.41
2022-08-17T08:10:13.824Z,63500.31
2022-08-17T08:12:45.323Z,63608.16
2022-08-17T08:15:23.613Z,63845.59
2022-08-17T08:18:18.670Z,64221.88
2022-08-17T08:21:10.431Z,64431.13
2022-08-17T08:24:00.060Z,64643.38
2022-08-17T08:27:00.356Z,64681.59
2022-08-17T08:29:44.838Z,65210.09
2022-08-17T08:32:50.410Z,65813.16
2022-08-17T08:35:37.876Z,65871.06
2022-08-17T08:38:22.326Z,66019.34
2022-08-17T08:41:31.901Z,66204.81
2022-08-17T08:44:19.001Z,66441.09
2022-08-17T08:46:49.158Z,66650.41
2022-08-17T08:50:02.161Z,66664.75
2022-08-17T08:52:35.495Z,66497.53
2022-08-17T08:55:15.460Z,66905.31
2022-08-17T08:58:08.307Z,67130.22
2022-08-17T09:00:58.538Z,67131.06
2022-08-17T09:04:24.601Z,67319.22
2022-08-17T09:07:17.466Z,67312.81
2022-08-17T09:09:59.680Z,67511.75
2022-08-17T09:12:41.659Z,67829.94
2022-08-17T09:15:33.468Z,68060.63
2022-08-17T09:19:00.285Z,68264.03
2022-08-17T09:21:18.838Z,68445.28
2022-08-17T09:24:04.885Z,68606.38
2022-08-17T09:26:43.067Z,68759.47
2022-08-17T09:29:16.311Z,68879.34
2022-08-17T09:31:55.228Z,68903.63
2022-08-17T09:34:43.520Z,68873.84
2022-08-17T09:37:53.118Z,68767.56
2022-08-17T09:40:46.540Z,68876.94
2022-08-17T09:43:30.631Z,68877.78
2022-08-17T09:46:03.881Z,69055.97
2022-08-17T09:48:31.712Z,68936.31
2022-08-17T09:51:17.763Z,68880.56
2022-08-17T09:53:45.454Z,68987.47
2022-08-17T09:56:20.642Z,69013.28
2022-08-17T09:58:48.021Z,69142.78
2022-08-17T10:01:53.663Z,69053.91
2022-08-17T10:04:32.175Z,69047.44
2022-08-17T10:07:24.714Z,69192.88
2022-08-17T10:10:19.588Z,69308.47
2022-08-17T10:13:09.580Z,69452.06
2022-08-17T10:15:54.717Z,69483.31
2022-08-17T10:18:22.116Z,69589.84
2022-08-17T10:21:15.360Z,69483.78
2022-08-17T10:24:03.962Z,69618.72
2022-08-17T10:26:40.354Z,69390.81
2022-08-17T10:29:53.810Z,69256.91
2022-08-17T10:32:32.824Z,69295.31
2022-08-17T10:35:00.222Z,69263.50
2022-08-17T10:37:35.833Z,69551.50
2022-08-17T10:40:32.538Z,69457.69
2022-08-17T10:43:27.042Z,69625.34
2022-08-17T10:46:29.927Z,69783.94
2022-08-17T10:49:17.065Z,69810.63
2022-08-17T10:51:59.969Z,69855.06
2022-08-17T10:54:48.130Z,69854.75
2022-08-17T10:57:34.082Z,69949.25
2022-08-17T11:00:27.822Z,69860.72
2022-08-17T11:02:57.501Z,69772.19
2022-08-17T11:05:44.056Z,69910.56
2022-08-17T11:08:57.489Z,69923.50
2022-08-17T11:11:53.046Z,70121.34
2022-08-17T11:14:41.265Z,70168.97
2022-08-17T11:17:14.692Z,70389.88
2022-08-17T11:19:57.226Z,70178.63
2022-08-17T11:22:57.988Z,70087.66
2022-08-17T11:25:47.245Z,69983.25
2022-08-17T11:28:19.323Z,69975.53
2022-08-17T11:30:51.870Z,70123.97
2022-08-17T11:33:34.111Z,70006.53
2022-08-17T11:36:32.113Z,69961.78
2022-08-17T11:39:19.487Z,70261.94
2022-08-17T11:41:58.715Z,70350.06
2022-08-17T11:45:03.621Z,70182.63
2022-08-17T11:48:27.197Z,70048.81
2022-08-17T11:51:19.058Z,70148.53
2022-08-17T11:53:46.495Z,70236.00
2022-08-17T11:56:35.776Z,70314.38
2022-08-17T11:59:23.301Z,70283.81
2022-08-17T12:01:51.931Z,70217.56
2022-08-17T12:04:22.719Z,70223.53
2022-08-17T12:06:56.874Z,70246.97
2022-08-17T12:09:32.090Z,70295.38
2022-08-17T12:12:16.911Z,70351.28
2022-08-17T12:15:10.565Z,70541.34
2022-08-17T12:17:42.020Z,70595.06
2022-08-17T12:20:37.201Z,70629.50
2022-08-17T12:23:09.010Z,70648.63
2022-08-17T12:25:56.248Z,70600.28
2022-08-17T12:28:34.977Z,70585.34
2022-08-17T12:31:08.479Z,70598.63
2022-08-17T12:33:42.413Z,70685.56
2022-08-17T12:36:15.365Z,70639.69
2022-08-17T12:38:52.157Z,70731.19
2022-08-17T12:41:41.740Z,70606.91
2022-08-17T12:44:15.081Z,70678.94
2022-08-17T12:47:23.328Z,70694.22
2022-08-17T12:49:53.691Z,70649.34
2022-08-17T12:52:28.105Z,70663.63
2022-08-17T12:55:00.218Z,70679.63
2022-08-17T12:57:33.644Z,70625.69
2022-08-17T13:00:12.116Z,70638.09
2022-08-17T13:02:57.998Z,70606.44
2022-08-17T13:05:37.200Z,70646.56
2022-08-17T13:08:15.163Z,70719.66
2022-08-17T13:10:53.463Z,70692.78
2022-08-17T13:13:26.733Z,70698.38
2022-08-17T13:15:54.260Z,70696.25
2022-08-17T13:18:44.390Z,70632.88
2022-08-17T13:21:27.022Z,70719.88
2022-08-17T13:24:03.834Z,70719.13
2022-08-17T13:26:44.294Z,70666.22
2022-08-17T13:29:23.756Z,70742.66
2022-08-17T13:32:13.547Z,70695.06
2022-08-17T13:35:14.198Z,70710.94
2022-08-17T13:37:40.728Z,70684.81
2022-08-17T13:40:10.356Z,70668.66
2022-08-17T13:42:52.967Z,70657.56
2022-08-17T13:45:34.997Z,70710.09
2022-08-17T13:48:16.777Z,70633.31
2022-08-17T13:50:56.370Z,70606.72
2022-08-17T13:53:34.135Z,70566.41
2022-08-17T13:56:37.104Z,70556.19
2022-08-17T13:59:06.626Z,70644.28
2022-08-17T14:01:40.017Z,70766.94
2022-08-17T14:04:14.083Z,70712.66
2022-08-17T14:06:54.463Z,70672.53
2022-08-17T14:09:37.195Z,70664.25
2022-08-17T14:12:11.865Z,70715.97
2022-08-17T14:14:40.758Z,70672.16
2022-08-17T14:17:08.377Z,70696.94
2022-08-17T14:19:36.240Z,70640.63
2022-08-17T14:22:06.487Z,70622.91
2022-08-17T14:24:41.281Z,70644.69
2022-08-17T14:27:12.312Z,70668.94
2022-08-17T14:29:41.195Z,70688.13
2022-08-17T14:32:19.056Z,70620.91
2022-08-17T14:34:47.388Z,70654.97
2022-08-17T14:37:15.825Z,70701.56
2022-08-17T14:39:43.314Z,70665.34
2022-08-17T14:42:11.461Z,70597.56
2022-08-17T14:44:41.957Z,70615.41
2022-08-17T14:47:15.728Z,70637.38
2022-08-17T14:49:43.698Z,70610.53
2022-08-17T14:52:21.726Z,70678.47
2022-08-17T14:54:53.302Z,70662.75
2022-08-17T14:57:33.673Z,70692.19
2022-08-17T15:00:02.930Z,70668.38
2022-08-17T15:02:31.212Z,70682.63
2022-08-17T15:05:00.649Z,70684.97
2022-08-17T15:07:30.929Z,70622.38
2022-08-17T15:10:01.346Z,70576.78
2022-08-17T15:12:34.582Z,70653.09
2022-08-17T15:15:06.216Z,70670.41
2022-08-17T15:17:43.908Z,70650.47
2022-08-17T15:20:15.656Z,70675.72
2022-08-17T15:22:45.018Z,70684.09
2022-08-17T15:25:13.754Z,70647.75
2022-08-17T15:27:41.547Z,70654.97
2022-08-17T15:30:10.148Z,70746.66
2022-08-17T15:32:40.877Z,70702.34
2022-08-17T15:35:18.748Z,70730.47
2022-08-17T15:38:04.519Z,70706.34
2022-08-17T15:40:37.956Z,70740.06
2022-08-17T15:43:07.985Z,70593.50
2022-08-17T15:45:35.551Z,70658.34
2022-08-17T15:48:03.501Z,70706.75
2022-08-17T15:50:30.901Z,70692.66
2022-08-17T15:53:00.577Z,70676.50
2022-08-17T15:55:30.728Z,70580.94
2022-08-17T15:57:58.309Z,70638.75
2022-08-17T16:00:28.297Z,70635.88
2022-08-17T16:03:46.394Z,70644.22
2022-08-17T16:05:44.845Z,70681.63
2022-08-17T16:08:18.466Z,70690.00
2022-08-17T16:10:49.090Z,70680.75
2022-08-17T16:13:18.214Z,70668.78
2022-08-17T16:15:56.852Z,70663.47
2022-08-17T16:18:31.407Z,70686.78
2022-08-17T16:21:24.094Z,70690.22
2022-08-17T16:23:57.804Z,70664.53
2022-08-17T16:26:26.483Z,70674.44
2022-08-17T16:28:54.899Z,70730.69
2022-08-17T16:31:22.922Z,70656.41
2022-08-17T16:34:15.563Z,70639.66
2022-08-17T16:36:39.130Z,70652.63
2022-08-17T16:39:06.584Z,70657.47
2022-08-17T16:41:39.997Z,70675.84
2022-08-17T16:44:08.748Z,70680.81
2022-08-17T16:46:45.853Z,70641.19
2022-08-17T16:49:24.417Z,70670.44
2022-08-17T16:52:03.452Z,70656.53
2022-08-17T16:54:34.302Z,70682.97
2022-08-17T16:57:05.458Z,70676.03
2022-08-17T16:59:42.220Z,70657.00
2022-08-17T17:02:15.490Z,70675.50
2022-08-17T17:05:27.526Z,70649.06
2022-08-17T17:07:58.821Z,70610.78
2022-08-17T17:10:38.675Z,70640.94
2022-08-17T17:13:32.595Z,70536.75
2022-08-17T17:16:12.373Z,70497.72
2022-08-17T17:18:42.685Z,70526.81
2022-08-17T17:21:19.694Z,70488.47
2022-08-17T17:23:55.135Z,70537.69
2022-08-17T17:26:52.959Z,70518.03
2022-08-17T17:29:50.026Z,70492.50
2022-08-17T17:32:26.763Z,70512.28
2022-08-17T17:35:04.659Z,70556.72
2022-08-17T17:37:34.812Z,70502.59
2022-08-17T17:40:13.713Z,70511.22
2022-08-17T17:42:43.706Z,70466.63
2022-08-17T17:45:20.751Z,70461.28
2022-08-17T17:47:48.437Z,70463.72
2022-08-17T17:50:18.799Z,70395.81
2022-08-17T17:53:08.839Z,70443.44
2022-08-17T17:55:59.907Z,70437.25
2022-08-17T17:58:39.705Z,70426.25
2022-08-17T18:01:59.456Z,70409.94
2022-08-17T18:04:52.507Z,70410.06
2022-08-17T18:07:42.443Z,70392.88
2022-08-17T18:10:42.412Z,70400.00
2022-08-17T18:13:21.395Z,70362.44
2022-08-17T18:15:54.440Z,70361.56
2022-08-17T18:18:39.217Z,70350.38
2022-08-17T18:21:18.738Z,70347.72
2022-08-17T18:23:52.772Z,70375.31
2022-08-17T18:26:53.570Z,70356.78
2022-08-17T18:29:31.729Z,70292.09
2022-08-17T18:32:17.575Z,70318.72
2022-08-17T18:34:48.742Z,70311.22
2022-08-17T18:37:32.118Z,70282.56
2022-08-17T18:40:08.231Z,70300.81
2022-08-17T18:42:38.332Z,70268.28
2022-08-17T18:45:06.352Z,70180.81
2022-08-17T18:47:33.964Z,70229.44
2022-08-17T18:50:24.577Z,70222.72
2022-08-17T18:52:52.020Z,70251.63
2022-08-17T18:55:28.327Z,70243.94
2022-08-17T18:58:16.072Z,70207.00
2022-08-17T19:00:46.058Z,70223.34
2022-08-17T19:03:22.158Z,70202.44
2022-08-17T19:05:57.517Z,70195.84
2022-08-17T19:08:31.057Z,70151.00
2022-08-17T19:11:18.979Z,70135.94
2022-08-17T19:13:52.214Z,70130.56
2022-08-17T19:16:22.793Z,70134.88
2022-08-17T19:18:58.587Z,70131.25
2022-08-17T19:21:55.699Z,70106.69
2022-08-17T19:24:30.658Z,70108.50
2022-08-17T19:27:23.327Z,70072.34
2022-08-17T19:30:02.677Z,70051.09
2022-08-17T19:32:35.128Z,70089.22
2022-08-17T19:35:05.858Z,70094.88
2022-08-17T19:37:36.294Z,70082.13
2022-08-17T19:40:24.482Z,70093.94
2022-08-17T19:43:13.290Z,70082.16
2022-08-17T19:46:15.706Z,70086.06
2022-08-17T19:49:04.211Z,70068.69
2022-08-17T19:52:05.086Z,70069.47
2022-08-17T19:54:58.910Z,70095.78
2022-08-17T19:58:01.810Z,70106.06
2022-08-17T20:00:31.299Z,70031.09
2022-08-17T20:02:58.913Z,70047.56
2022-08-17T20:06:08.597Z,70026.84
2022-08-17T20:08:33.901Z,69992.66
2022-08-17T20:11:15.108Z,69999.44
2022-08-17T20:13:49.018Z,70004.38
2022-08-17T20:16:17.470Z,70007.50
2022-08-17T20:18:53.807Z,70027.06
2022-08-17T20:21:40.085Z,70031.53
2022-08-17T20:24:39.145Z,70011.66
2022-08-17T20:27:21.951Z,70004.53
2022-08-17T20:30:03.381Z,70048.19
2022-08-17T20:32:48.432Z,69978.13
2022-08-17T20:35:27.056Z,69979.50
2022-08-17T20:38:07.405Z,69976.84
2022-08-17T20:40:59.746Z,69974.34
2022-08-17T20:43:38.882Z,70003.53
2022-08-17T20:46:11.884Z,69974.19
2022-08-17T20:48:48.263Z,69955.09
2022-08-17T20:51:31.453Z,69962.28
2022-08-17T20:54:06.571Z,69976.56
2022-08-17T20:57:01.012Z,69934.13
2022-08-17T20:59:30.711Z,69937.03
2022-08-17T21:02:17.630Z,69964.28
2022-08-17T21:04:47.411Z,69960.03
2022-08-17T21:07:32.974Z,69938.06
2022-08-17T21:10:25.896Z,69941.56
2022-08-17T21:13:08.396Z,69945.22
2022-08-17T21:15:57.194Z,69901.25
2022-08-17T21:18:38.845Z,69924.41
2022-08-17T21:21:25.139Z,69917.84
2022-08-17T21:24:11.763Z,69979.00
2022-08-17T21:26:50.830Z,69919.19
2022-08-17T21:29:31.046Z,69926.16
2022-08-17T21:32:02.928Z,69916.94
2022-08-17T21:35:06.593Z,69920.47
2022-08-17T21:37:44.307Z,69865.72
2022-08-17T21:40:18.106Z,69912.19
2022-08-17T21:42:53.745Z,69887.31
2022-08-17T21:45:37.575Z,69954.44
2022-08-17T21:48:16.383Z,69933.97
2022-08-17T21:50:56.663Z,69895.38
2022-08-17T21:53:33.751Z,69898.50
2022-08-17T21:56:01.621Z,69888.84
2022-08-17T21:58:35.864Z,69893.31
2022-08-17T22:01:34.366Z,69857.66
2022-08-17T22:04:11.222Z,69855.66
2022-08-17T22:06:43.255Z,69868.22
2022-08-17T22:09:32.069Z,69803.13
2022-08-17T22:12:01.972Z,69809.31
2022-08-17T22:14:52.155Z,69819.31
2022-08-17T22:17:36.483Z,69803.38
2022-08-17T22:20:14.690Z,69757.38
2022-08-17T22:23:06.400Z,69734.53
2022-08-17T22:25:56.351Z,69783.63
2022-08-17T22:28:42.859Z,69775.53
2022-08-17T22:31:14.498Z,69789.44
2022-08-17T22:33:46.969Z,69764.97
2022-08-17T22:36:25.189Z,69743.63
2022-08-17T22:38:53.960Z,69717.47
2022-08-17T22:41:24.089Z,69724.00
2022-08-17T22:43:53.293Z,69682.44
2022-08-17T22:46:23.800Z,69724.41
2022-08-17T22:48:57.905Z,69694.56
2022-08-17T22:51:30.871Z,69687.69
2022-08-17T22:54:20.480Z,69708.31
2022-08-17T22:57:14.827Z,69679.84
2022-08-17T22:59:50.661Z,69633.31
2022-08-17T23:02:22.983Z,69678.91
2022-08-17T23:05:16.702Z,69644.84
2022-08-17T23:07:46.598Z,69636.75
2022-08-17T23:10:15.286Z,69658.31
2022-08-17T23:12:42.983Z,69617.34
2022-08-17T23:15:17.762Z,69668.59
2022-08-17T23:17:45.692Z,69623.78
2022-08-17T23:20:15.599Z,69599.19
2022-08-17T23:22:52.527Z,69583.03
2022-08-17T23:25:28.136Z,69528.06
2022-08-17T23:27:57.592Z,69526.38
2022-08-17T23:30:25.654Z,69549.47
2022-08-17T23:32:59.331Z,69505.31
2022-08-17T23:35:39.309Z,69485.56
2022-08-17T23:38:09.761Z,69530.94
2022-08-17T23:40:39.497Z,69528.25
2022-08-17T23:43:24.353Z,69503.84
2022-08-17T23:45:55.100Z,69434.69
2022-08-17T23:48:32.542Z,69432.97
2022-08-17T23:51:24.776Z,69452.75
2022-08-17T23:54:07.739Z,69431.84
2022-08-17T23:56:44.283Z,69346.19
2022-08-17T23:59:13.329Z,69353.91
